Details for Flybe at EGBB




Go Back


Latest METAR
Local Time

EGBB 170850Z 26007KT 200V290 9999 FEW020 17/11 Q1019
17/08/2018, 10:02:26

Description
Results
Flybe Logo
Number of Pilots based at EGBB
0 Pilots Based here
Number of Flybe Flights Departed from EGBB
9 Flights Departed
Number of Flybe Flights Arrived at EGBB
6 Flights Arrived
Number of Flybe Schedules Departing from EGBB
78 Schedules
Number of Flybe Schedules Arriving at EGBB
82 Schedules
Number of Flybe Schedules Departing from EGBB availible today
53 Schedules Today
Number of Flybe Schedules Arriving at EGBB availible today
53 Schedules Today
Average Landing Rate at EGBB
-225 fpm
Flybe Average Landing Rate at EGBB
-131 fpm
Total Fuel Purchased at EGBB by Flybe
7,825.38 kgs / 17,251.83 lbs

Pilots Based at EGBB


Pilot ID
Pilot Name
Pilot Rank
No. of Flights
No. of Flying Hours
There are no pilots assigned to this hub!   Will you be the first?
Content